createdAt,value
2023-03-28T00:01:08.520Z,100.00
2023-03-28T00:03:41.636Z,100.00
2023-03-28T00:06:12.074Z,100.00
2023-03-28T00:08:40.294Z,100.00
2023-03-28T00:11:20.179Z,100.00
2023-03-28T00:13:48.669Z,100.00
2023-03-28T00:16:16.762Z,100.00
2023-03-28T00:18:43.603Z,100.00
2023-03-28T00:21:25.527Z,100.00
2023-03-28T00:23:54.060Z,100.00
2023-03-28T00:26:22.545Z,100.00
2023-03-28T00:28:49.180Z,100.00
2023-03-28T00:31:15.965Z,100.00
2023-03-28T00:33:42.554Z,100.00
2023-03-28T00:36:10.550Z,100.00
2023-03-28T00:38:38.820Z,100.00
2023-03-28T00:41:06.045Z,100.00
2023-03-28T00:43:44.298Z,100.00
2023-03-28T00:46:42.081Z,100.00
2023-03-28T00:49:21.394Z,100.00
2023-03-28T00:51:53.866Z,100.00
2023-03-28T00:54:21.530Z,100.00
2023-03-28T00:56:52.404Z,100.00
2023-03-28T00:59:23.842Z,100.00
2023-03-28T01:01:50.907Z,100.00
2023-03-28T01:04:20.644Z,100.00
2023-03-28T01:06:51.196Z,100.00
2023-03-28T01:09:19.062Z,100.00
2023-03-28T01:11:46.318Z,100.00
2023-03-28T01:14:17.924Z,100.00
2023-03-28T01:16:46.195Z,100.00
2023-03-28T01:19:22.035Z,100.00
2023-03-28T01:22:22.616Z,100.00
2023-03-28T01:25:10.851Z,100.00
2023-03-28T01:27:44.248Z,100.00
2023-03-28T01:30:48.525Z,100.00
2023-03-28T01:33:40.659Z,100.00
2023-03-28T01:36:33.952Z,100.00
2023-03-28T01:39:05.184Z,100.00
2023-03-28T01:41:51.955Z,100.00
2023-03-28T01:44:30.506Z,100.00
2023-03-28T01:47:20.294Z,100.00
2023-03-28T01:50:07.481Z,100.00
2023-03-28T01:52:46.342Z,100.00
2023-03-28T01:55:18.759Z,100.00
2023-03-28T01:57:53.150Z,100.00
2023-03-28T02:00:36.473Z,100.00
2023-03-28T02:03:18.928Z,100.00
2023-03-28T02:05:48.349Z,100.00
2023-03-28T02:08:17.614Z,100.00
2023-03-28T02:10:46.599Z,100.00
2023-03-28T02:13:21.199Z,100.00
2023-03-28T02:15:54.351Z,100.00
2023-03-28T02:18:34.305Z,100.00
2023-03-28T02:21:14.187Z,100.00
2023-03-28T02:23:45.522Z,100.00
2023-03-28T02:26:12.562Z,100.00
2023-03-28T02:28:41.631Z,100.00
2023-03-28T02:31:08.463Z,100.00
2023-03-28T02:33:40.121Z,100.00
2023-03-28T02:36:16.930Z,100.00
2023-03-28T02:38:43.476Z,100.00
2023-03-28T02:41:24.043Z,100.00
2023-03-28T02:43:53.353Z,100.00
2023-03-28T02:46:46.496Z,100.00
2023-03-28T02:49:29.963Z,100.00
2023-03-28T02:52:14.994Z,100.00
2023-03-28T02:55:03.382Z,100.00
2023-03-28T02:57:56.019Z,100.00
2023-03-28T03:00:22.826Z,100.00
2023-03-28T03:02:54.264Z,100.00
2023-03-28T03:05:22.422Z,100.00
2023-03-28T03:07:50.194Z,100.00
2023-03-28T03:10:17.571Z,100.00
2023-03-28T03:12:44.626Z,100.00
2023-03-28T03:15:11.987Z,100.00
2023-03-28T03:17:38.812Z,100.00
2023-03-28T03:20:07.579Z,100.00
2023-03-28T03:22:34.756Z,100.00
2023-03-28T03:25:08.314Z,100.00
2023-03-28T03:27:37.284Z,100.00
2023-03-28T03:30:04.885Z,100.00
2023-03-28T03:32:31.889Z,100.00
2023-03-28T03:34:58.757Z,100.00
2023-03-28T03:37:25.338Z,100.00
2023-03-28T03:39:51.855Z,100.00
2023-03-28T03:42:18.467Z,100.00
2023-03-28T03:44:45.034Z,100.00
2023-03-28T03:47:11.750Z,100.00
2023-03-28T03:49:38.382Z,100.00
2023-03-28T03:52:05.204Z,100.00
2023-03-28T03:54:31.750Z,100.00
2023-03-28T03:56:58.405Z,100.00
2023-03-28T03:59:25.079Z,100.00
2023-03-28T04:01:51.851Z,100.00
2023-03-28T04:04:18.782Z,100.00
2023-03-28T04:06:45.540Z,100.00
2023-03-28T04:09:12.224Z,100.00
2023-03-28T04:11:38.816Z,100.00
2023-03-28T04:14:05.630Z,100.00
2023-03-28T04:16:40.468Z,100.00
2023-03-28T04:19:07.821Z,100.00
2023-03-28T04:21:35.440Z,100.00
2023-03-28T04:24:02.100Z,100.00
2023-03-28T04:26:29.828Z,100.00
2023-03-28T04:28:57.384Z,100.00
2023-03-28T04:31:28.984Z,100.00
2023-03-28T04:33:56.041Z,100.00
2023-03-28T04:36:25.940Z,100.00
2023-03-28T04:38:52.784Z,100.00
2023-03-28T04:41:19.328Z,100.00
2023-03-28T04:43:45.983Z,100.00
2023-03-28T04:46:12.669Z,100.00
2023-03-28T04:48:39.298Z,100.00
2023-03-28T04:51:06.287Z,100.00
2023-03-28T04:53:33.014Z,100.00
2023-03-28T04:56:00.308Z,100.00
2023-03-28T04:58:27.130Z,100.00
2023-03-28T05:00:54.122Z,100.00
2023-03-28T05:03:23.292Z,100.00
2023-03-28T05:05:53.123Z,100.00
2023-03-28T05:08:23.190Z,100.00
2023-03-28T05:10:50.702Z,100.00
2023-03-28T05:13:18.539Z,100.00
2023-03-28T05:15:47.729Z,100.00
2023-03-28T05:18:15.883Z,100.00
2023-03-28T05:20:42.751Z,100.00
2023-03-28T05:23:09.750Z,100.00
2023-03-28T05:25:37.336Z,100.00
2023-03-28T05:28:04.659Z,100.00
2023-03-28T05:30:31.625Z,100.00
2023-03-28T05:32:58.676Z,100.00
2023-03-28T05:35:25.448Z,100.00
2023-03-28T05:37:52.184Z,100.00
2023-03-28T05:40:19.062Z,100.00
2023-03-28T05:42:45.957Z,100.00
2023-03-28T05:45:12.884Z,100.00
2023-03-28T05:47:39.761Z,100.00
2023-03-28T05:50:07.527Z,100.00
2023-03-28T05:52:34.153Z,100.00
2023-03-28T05:55:00.750Z,100.00
2023-03-28T05:57:27.383Z,100.00
2023-03-28T05:59:54.103Z,100.00
2023-03-28T06:02:22.311Z,100.00
2023-03-28T06:04:49.028Z,100.00
2023-03-28T06:07:19.740Z,100.00
2023-03-28T06:09:49.861Z,100.00
2023-03-28T06:12:16.465Z,100.00
2023-03-28T06:14:43.550Z,100.00
2023-03-28T06:17:10.335Z,100.00
2023-03-28T06:19:37.220Z,100.00
2023-03-28T06:22:04.181Z,100.00
2023-03-28T06:24:31.596Z,100.00
2023-03-28T06:26:58.692Z,100.00
2023-03-28T06:29:25.732Z,100.00
2023-03-28T06:31:52.465Z,100.00
2023-03-28T06:34:19.142Z,100.00
2023-03-28T06:36:45.825Z,100.00
2023-03-28T06:39:13.105Z,100.00
2023-03-28T06:41:39.808Z,100.00
2023-03-28T06:44:06.563Z,100.00
2023-03-28T06:46:33.311Z,100.00
2023-03-28T06:48:59.863Z,100.00
2023-03-28T06:51:26.505Z,100.00
2023-03-28T06:53:53.367Z,100.00
2023-03-28T06:56:19.940Z,100.00
2023-03-28T06:58:46.551Z,100.00
2023-03-28T07:01:13.192Z,100.00
2023-03-28T07:03:39.843Z,100.00
2023-03-28T07:06:08.963Z,100.00
2023-03-28T07:08:35.752Z,100.00
2023-03-28T07:11:02.846Z,100.00
2023-03-28T07:13:29.685Z,100.00
2023-03-28T07:16:08.816Z,100.00
2023-03-28T07:18:35.471Z,100.00
2023-03-28T07:21:10.675Z,100.00
2023-03-28T07:23:39.489Z,100.00
2023-03-28T07:26:07.917Z,100.00
2023-03-28T07:28:35.101Z,100.00
2023-03-28T07:31:02.635Z,100.00
2023-03-28T07:33:36.207Z,100.00
2023-03-28T07:36:15.918Z,100.00
2023-03-28T07:38:42.838Z,100.00
2023-03-28T07:41:09.768Z,100.00
2023-03-28T07:43:38.000Z,100.00
2023-03-28T07:46:08.299Z,100.00
2023-03-28T07:48:36.711Z,100.00
2023-03-28T07:51:06.523Z,100.00
2023-03-28T07:53:34.504Z,100.00
2023-03-28T07:56:01.690Z,100.00
2023-03-28T07:58:28.389Z,100.00
2023-03-28T08:00:55.156Z,100.00
2023-03-28T08:03:23.959Z,100.00
2023-03-28T08:05:52.291Z,100.00
2023-03-28T08:08:21.752Z,100.00
2023-03-28T08:10:51.880Z,100.00
2023-03-28T08:13:21.263Z,100.00
2023-03-28T08:15:54.992Z,100.00
2023-03-28T08:18:22.748Z,100.00
2023-03-28T08:20:49.725Z,100.00
2023-03-28T08:23:16.637Z,100.00
2023-03-28T08:25:43.688Z,100.00
2023-03-28T08:28:11.482Z,100.00
2023-03-28T08:30:38.183Z,100.00
2023-03-28T08:33:05.057Z,100.00
2023-03-28T08:35:32.689Z,100.00
2023-03-28T08:37:59.985Z,100.00
2023-03-28T08:40:29.062Z,100.00
2023-03-28T08:43:33.336Z,100.00
2023-03-28T08:46:01.434Z,100.00
2023-03-28T08:48:38.823Z,100.00
2023-03-28T08:51:31.656Z,98.57
2023-03-28T08:54:52.716Z,97.20
2023-03-28T08:57:25.233Z,95.53
2023-03-28T09:00:08.887Z,94.06
2023-03-28T09:02:36.183Z,94.07
2023-03-28T09:07:54.866Z,91.43
2023-03-28T09:10:41.853Z,89.16
2023-03-28T09:13:37.813Z,88.68
2023-03-28T09:16:17.289Z,86.67
2023-03-28T09:19:20.550Z,85.70
2023-03-28T09:22:24.746Z,83.46
2023-03-28T09:25:03.794Z,85.85
2023-03-28T09:27:34.661Z,91.86
2023-03-28T09:30:22.319Z,93.12
2023-03-28T09:32:53.170Z,95.48
2023-03-28T09:35:22.341Z,96.23
2023-03-28T09:37:52.178Z,95.29
2023-03-28T09:40:30.359Z,96.30
2023-03-28T09:43:15.923Z,93.97
2023-03-28T09:45:45.414Z,91.11
2023-03-28T09:48:19.918Z,88.59
2023-03-28T09:50:47.250Z,87.65
2023-03-28T09:53:23.195Z,82.10
2023-03-28T09:56:03.525Z,82.72
2023-03-28T09:58:48.319Z,82.53
2023-03-28T10:01:45.797Z,84.29
2023-03-28T10:04:15.466Z,84.22
2023-03-28T10:06:43.633Z,84.12
2023-03-28T10:09:18.379Z,85.95
2023-03-28T10:11:49.512Z,86.56
2023-03-28T10:14:40.466Z,85.76
2023-03-28T10:17:14.490Z,82.66
2023-03-28T10:19:44.790Z,84.08
2023-03-28T10:22:15.642Z,83.25
2023-03-28T10:24:45.351Z,86.27
2023-03-28T10:27:24.054Z,86.62
2023-03-28T10:29:53.662Z,88.26
2023-03-28T10:32:29.436Z,88.05
2023-03-28T10:35:08.276Z,87.91
2023-03-28T10:37:35.504Z,89.41
2023-03-28T10:40:07.970Z,93.21
2023-03-28T10:42:45.767Z,95.16
2023-03-28T10:45:24.354Z,92.01
2023-03-28T10:47:54.833Z,90.26
2023-03-28T10:50:36.519Z,89.86
2023-03-28T10:53:22.021Z,85.24
2023-03-28T10:56:14.374Z,80.95
2023-03-28T10:58:51.489Z,79.24
2023-03-28T11:01:25.078Z,72.49
2023-03-28T11:04:11.214Z,71.98
2023-03-28T11:06:53.348Z,67.97
2023-03-28T11:09:25.208Z,69.89
2023-03-28T11:12:07.025Z,65.67
2023-03-28T11:15:11.557Z,63.89
2023-03-28T11:18:03.435Z,64.54
2023-03-28T11:20:40.689Z,65.31
2023-03-28T11:23:18.825Z,65.79
2023-03-28T11:26:06.787Z,66.37
2023-03-28T11:28:41.404Z,65.66
2023-03-28T11:31:13.709Z,67.79
2023-03-28T11:34:03.139Z,66.00
2023-03-28T11:36:53.794Z,58.73
2023-03-28T11:39:26.664Z,58.36
2023-03-28T11:41:56.660Z,60.81
2023-03-28T11:44:30.781Z,57.21
2023-03-28T11:47:04.722Z,57.18
2023-03-28T11:49:46.014Z,55.69
2023-03-28T11:52:28.401Z,53.68
2023-03-28T11:54:57.730Z,52.11
2023-03-28T11:57:35.119Z,51.24
2023-03-28T12:00:36.641Z,55.23
2023-03-28T12:03:12.463Z,63.28
2023-03-28T12:06:00.034Z,75.11
2023-03-28T12:08:57.321Z,76.16
2023-03-28T12:11:34.906Z,65.91
2023-03-28T12:14:26.753Z,63.07
2023-03-28T12:16:55.385Z,61.87
2023-03-28T12:19:40.096Z,69.42
2023-03-28T12:22:20.470Z,83.40
2023-03-28T12:24:52.707Z,85.56
2023-03-28T12:27:42.374Z,88.29
2023-03-28T12:30:49.845Z,91.06
2023-03-28T12:33:26.806Z,95.28
2023-03-28T12:36:28.771Z,96.96
2023-03-28T12:39:13.988Z,98.37
2023-03-28T12:41:41.194Z,97.81
2023-03-28T12:44:12.231Z,99.73
2023-03-28T12:46:49.289Z,100.00
2023-03-28T12:49:46.487Z,100.00
2023-03-28T12:52:22.488Z,100.00
2023-03-28T12:55:01.859Z,100.00
2023-03-28T12:57:40.873Z,100.00
2023-03-28T13:00:07.847Z,100.00
2023-03-28T13:02:54.000Z,100.00
2023-03-28T13:05:29.800Z,99.03
2023-03-28T13:08:04.570Z,97.66
2023-03-28T13:11:06.688Z,98.26
2023-03-28T13:14:04.167Z,100.00
2023-03-28T13:16:47.782Z,100.00
2023-03-28T13:19:18.484Z,100.00
2023-03-28T13:21:50.013Z,100.00
2023-03-28T13:24:28.773Z,100.00
2023-03-28T13:27:06.757Z,100.00
2023-03-28T13:29:58.848Z,100.00
2023-03-28T13:32:26.206Z,100.00
2023-03-28T13:34:56.922Z,100.00
2023-03-28T13:37:26.113Z,100.00
2023-03-28T13:40:01.946Z,100.00
2023-03-28T13:42:31.576Z,100.00
2023-03-28T13:45:03.313Z,100.00
2023-03-28T13:47:41.707Z,100.00
2023-03-28T13:50:26.749Z,91.01
2023-03-28T13:52:53.392Z,78.49
2023-03-28T13:55:23.443Z,67.88
2023-03-28T13:57:51.494Z,62.38
2023-03-28T14:00:22.895Z,62.70
2023-03-28T14:02:51.909Z,65.06
2023-03-28T14:05:30.930Z,65.26
2023-03-28T14:08:22.123Z,64.85
2023-03-28T14:10:51.663Z,66.84
2023-03-28T14:13:28.911Z,71.83
2023-03-28T14:15:56.169Z,78.26
2023-03-28T14:18:34.631Z,76.50
2023-03-28T14:21:01.955Z,81.18
2023-03-28T14:23:32.029Z,79.85
2023-03-28T14:26:04.822Z,77.72
2023-03-28T14:28:31.865Z,76.52
2023-03-28T14:30:59.843Z,77.74
2023-03-28T14:33:32.180Z,73.10
2023-03-28T14:36:04.414Z,71.06
2023-03-28T14:38:36.314Z,72.85
2023-03-28T14:41:15.160Z,67.13
2023-03-28T14:43:42.045Z,63.61
2023-03-28T14:46:10.255Z,59.29
2023-03-28T14:48:38.290Z,58.74
2023-03-28T14:51:06.074Z,59.27
2023-03-28T14:53:42.859Z,62.35
2023-03-28T14:56:14.248Z,60.74
2023-03-28T14:58:44.325Z,61.11
2023-03-28T15:01:15.959Z,61.23
2023-03-28T15:03:46.702Z,62.58
2023-03-28T15:06:18.880Z,54.13
2023-03-28T15:08:46.101Z,50.81
2023-03-28T15:11:12.662Z,53.27
2023-03-28T15:13:41.266Z,55.44
2023-03-28T15:16:09.251Z,57.50
2023-03-28T15:18:44.514Z,60.66
2023-03-28T15:21:11.884Z,64.21
2023-03-28T15:23:56.357Z,66.07
2023-03-28T15:26:28.945Z,60.02
2023-03-28T15:28:57.698Z,53.60
2023-03-28T15:31:26.049Z,51.45
2023-03-28T15:33:53.899Z,53.66
2023-03-28T15:36:32.737Z,54.89
2023-03-28T15:39:17.329Z,56.78
2023-03-28T15:41:48.198Z,66.79
2023-03-28T15:44:34.601Z,63.49
2023-03-28T15:47:09.840Z,59.52
2023-03-28T15:49:38.012Z,59.92
2023-03-28T15:52:20.106Z,59.97
2023-03-28T15:54:52.408Z,57.03
2023-03-28T15:57:22.248Z,57.65
2023-03-28T15:59:54.136Z,54.03
2023-03-28T16:02:23.549Z,53.18
2023-03-28T16:05:15.126Z,50.89
2023-03-28T16:07:46.083Z,52.64
2023-03-28T16:10:14.715Z,52.01
2023-03-28T16:12:41.421Z,49.08
2023-03-28T16:15:09.437Z,48.57
2023-03-28T16:17:36.394Z,48.51
2023-03-28T16:20:14.288Z,46.55
2023-03-28T16:22:40.879Z,46.25
2023-03-28T16:25:07.942Z,46.43
2023-03-28T16:27:37.222Z,46.79
2023-03-28T16:30:07.843Z,47.07
2023-03-28T16:32:34.514Z,48.06
2023-03-28T16:35:01.075Z,47.75
2023-03-28T16:37:27.635Z,48.64
2023-03-28T16:39:54.255Z,49.52
2023-03-28T16:42:21.241Z,50.42
2023-03-28T16:44:47.897Z,50.09
2023-03-28T16:47:15.791Z,50.25
2023-03-28T16:49:42.380Z,51.13
2023-03-28T16:52:08.957Z,51.01
2023-03-28T16:54:35.938Z,51.06
2023-03-28T16:57:02.787Z,51.19
2023-03-28T16:59:29.588Z,51.27
2023-03-28T17:01:56.302Z,52.75
2023-03-28T17:04:23.830Z,53.50
2023-03-28T17:06:50.482Z,54.04
2023-03-28T17:09:17.102Z,53.98
2023-03-28T17:11:43.779Z,55.86
2023-03-28T17:14:10.480Z,54.67
2023-03-28T17:16:40.512Z,55.84
2023-03-28T17:19:07.925Z,55.21
2023-03-28T17:21:35.105Z,59.48
2023-03-28T17:24:02.289Z,57.42
2023-03-28T17:26:29.046Z,57.09
2023-03-28T17:28:58.522Z,57.27
2023-03-28T17:31:25.870Z,58.11
2023-03-28T17:33:52.652Z,58.74
2023-03-28T17:36:25.369Z,58.87
2023-03-28T17:38:54.073Z,60.90
2023-03-28T17:41:23.318Z,62.54
2023-03-28T17:43:50.862Z,64.88
2023-03-28T17:46:17.771Z,65.73
2023-03-28T17:48:44.602Z,66.90
2023-03-28T17:51:12.082Z,68.80
2023-03-28T17:53:39.899Z,69.38
2023-03-28T17:56:07.455Z,69.52
2023-03-28T17:58:34.119Z,70.10
2023-03-28T18:01:00.941Z,70.18
2023-03-28T18:03:28.113Z,69.45
2023-03-28T18:06:00.489Z,70.33
2023-03-28T18:08:28.960Z,70.75
2023-03-28T18:11:01.318Z,72.02
2023-03-28T18:13:30.259Z,72.89
2023-03-28T18:15:57.830Z,73.66
2023-03-28T18:18:24.501Z,75.81
2023-03-28T18:20:51.429Z,75.88
2023-03-28T18:23:18.256Z,76.02
2023-03-28T18:25:44.849Z,76.15
2023-03-28T18:28:11.459Z,75.88
2023-03-28T18:30:39.463Z,76.01
2023-03-28T18:33:06.424Z,77.26
2023-03-28T18:35:33.307Z,77.38
2023-03-28T18:38:00.203Z,78.60
2023-03-28T18:40:26.850Z,78.69
2023-03-28T18:42:53.444Z,79.22
2023-03-28T18:45:20.157Z,79.27
2023-03-28T18:47:46.948Z,78.87
2023-03-28T18:50:15.237Z,78.53
2023-03-28T18:52:42.937Z,79.10
2023-03-28T18:55:10.584Z,78.87
2023-03-28T18:57:38.537Z,80.83
2023-03-28T19:00:18.748Z,80.55
2023-03-28T19:02:47.341Z,81.91
2023-03-28T19:05:18.209Z,82.25
2023-03-28T19:07:45.386Z,82.53
2023-03-28T19:10:13.581Z,82.05
2023-03-28T19:12:41.526Z,80.95
2023-03-28T19:15:11.592Z,82.34
2023-03-28T19:17:40.130Z,82.48
2023-03-28T19:20:12.040Z,80.75
2023-03-28T19:22:42.715Z,82.04
2023-03-28T19:25:10.171Z,82.01
2023-03-28T19:27:37.947Z,82.04
2023-03-28T19:30:05.796Z,82.17
2023-03-28T19:32:33.063Z,81.85
2023-03-28T19:34:59.637Z,82.60
2023-03-28T19:37:26.190Z,82.49
2023-03-28T19:39:52.836Z,82.48
2023-03-28T19:42:20.493Z,82.66
2023-03-28T19:44:47.221Z,82.75
2023-03-28T19:47:13.835Z,83.90
2023-03-28T19:49:40.652Z,83.35
2023-03-28T19:52:09.982Z,83.11
2023-03-28T19:54:37.296Z,84.79
2023-03-28T19:57:07.957Z,84.41
2023-03-28T19:59:35.028Z,84.56
2023-03-28T20:02:02.144Z,85.06
2023-03-28T20:04:29.141Z,85.59
2023-03-28T20:06:55.917Z,86.15
2023-03-28T20:09:24.352Z,85.86
2023-03-28T20:11:51.430Z,86.61
2023-03-28T20:14:20.343Z,87.17
2023-03-28T20:16:48.192Z,86.95
2023-03-28T20:19:14.858Z,87.08
2023-03-28T20:21:41.574Z,87.20
2023-03-28T20:24:08.899Z,87.04
2023-03-28T20:26:35.699Z,87.22
2023-03-28T20:29:02.527Z,87.26
2023-03-28T20:31:29.297Z,87.05
2023-03-28T20:33:56.507Z,87.65
2023-03-28T20:36:23.678Z,88.12
2023-03-28T20:38:50.649Z,87.71
2023-03-28T20:41:18.736Z,87.28
2023-03-28T20:43:50.372Z,87.80
2023-03-28T20:46:21.305Z,87.86
2023-03-28T20:48:52.873Z,87.46
2023-03-28T20:51:23.322Z,87.32
2023-03-28T20:53:55.755Z,87.93
2023-03-28T20:56:23.612Z,88.39
2023-03-28T20:58:51.045Z,88.69
2023-03-28T21:01:18.685Z,88.90
2023-03-28T21:03:50.093Z,89.07
2023-03-28T21:06:33.619Z,89.65
2023-03-28T21:09:08.069Z,89.47
2023-03-28T21:11:36.799Z,89.24
2023-03-28T21:14:05.858Z,90.02
2023-03-28T21:16:33.510Z,89.78
2023-03-28T21:19:01.869Z,89.46
2023-03-28T21:21:33.417Z,89.03
2023-03-28T21:24:00.686Z,89.40
2023-03-28T21:26:27.441Z,89.64
2023-03-28T21:28:54.018Z,90.16
2023-03-28T21:31:25.060Z,90.21
2023-03-28T21:33:53.576Z,91.25
2023-03-28T21:36:20.782Z,91.75
2023-03-28T21:38:48.091Z,91.93
2023-03-28T21:41:15.672Z,92.47
2023-03-28T21:43:43.146Z,93.32
2023-03-28T21:46:11.513Z,93.65
2023-03-28T21:48:38.783Z,93.63
2023-03-28T21:51:06.078Z,93.32
2023-03-28T21:53:35.070Z,93.10
2023-03-28T21:56:02.027Z,93.72
2023-03-28T21:58:32.360Z,93.70
2023-03-28T22:01:00.079Z,92.99
2023-03-28T22:03:27.832Z,94.00
2023-03-28T22:05:55.353Z,94.39
2023-03-28T22:08:22.814Z,94.75
2023-03-28T22:10:52.868Z,95.20
2023-03-28T22:13:20.923Z,95.23
2023-03-28T22:15:47.591Z,96.07
2023-03-28T22:18:15.921Z,95.75
2023-03-28T22:20:43.942Z,96.28
2023-03-28T22:23:11.173Z,96.67
2023-03-28T22:25:38.829Z,96.14
2023-03-28T22:28:08.509Z,96.54
2023-03-28T22:30:36.668Z,95.59
2023-03-28T22:33:04.194Z,94.58
2023-03-28T22:35:32.443Z,94.23
2023-03-28T22:38:00.253Z,95.05
2023-03-28T22:40:27.034Z,95.19
2023-03-28T22:42:57.166Z,95.47
2023-03-28T22:45:26.665Z,96.79
2023-03-28T22:47:54.009Z,97.79
2023-03-28T22:50:22.211Z,100.00
2023-03-28T22:52:50.389Z,100.00
2023-03-28T22:55:17.613Z,100.00
2023-03-28T22:57:45.319Z,100.00
2023-03-28T23:00:13.949Z,100.00
2023-03-28T23:02:41.666Z,100.00
2023-03-28T23:05:09.912Z,100.00
2023-03-28T23:07:37.764Z,100.00
2023-03-28T23:10:10.834Z,100.00
2023-03-28T23:12:37.622Z,100.00
2023-03-28T23:15:04.458Z,100.00
2023-03-28T23:17:31.061Z,100.00
2023-03-28T23:19:58.600Z,100.00
2023-03-28T23:22:25.247Z,100.00
2023-03-28T23:24:51.885Z,100.00
2023-03-28T23:27:19.721Z,100.00
2023-03-28T23:29:46.888Z,100.00
2023-03-28T23:32:13.500Z,100.00
2023-03-28T23:34:40.492Z,100.00
2023-03-28T23:37:07.276Z,100.00
2023-03-28T23:39:33.911Z,100.00
2023-03-28T23:42:00.505Z,100.00
2023-03-28T23:44:27.955Z,100.00
2023-03-28T23:46:56.390Z,100.00
2023-03-28T23:49:23.440Z,100.00
2023-03-28T23:51:50.951Z,100.00
2023-03-28T23:54:18.725Z,100.00
2023-03-28T23:56:46.234Z,100.00
2023-03-28T23:59:13.371Z,100.00
